^^
Paulen-Weather Station Historical Data
Daily Summary for May 29, 2022 Units:  English    Metric   Both
Daily Weekly Monthly Yearly Custom
  High: Low: Average:
Temperature: 59 °F 50 °F 54.5 °F
Dew Point: 50 °F 41 °F 43.2 °F
Humidity: 76% 53% 65%
Wind Speed: 13mph 1.9mph 9.3mph
Wind Gust: 12.4mph - -
Wind- - SSW
Pressure: 29.8 in 29.7 in -
Precipitation: 0 in    
Historical Graphs
 
 
Tabular Data for May 29, 2022
Time Temperature Dew Point Pressure Wind Wind Speed Wind Gust Humidity Rainfall Rate (Hourly) solar
00:04 53.6 °F 42.8 °F 29.8 in NNW 5.6 mph 5.6 mph 67% 0 in 0 W/m2
00:09 53.6 °F 42.8 °F 29.8 in N 6.2 mph 5 mph 64% 0 in 0 W/m2
00:14 53.6 °F 42.8 °F 29.8 in N 6.8 mph 5.6 mph 63% 0 in 0 W/m2
00:19 53.6 °F 42.8 °F 29.8 in N 6.2 mph 5.6 mph 64% 0 in 0 W/m2
00:24 53.6 °F 41 °F 29.8 in NNW 5.6 mph 5.6 mph 62% 0 in 0 W/m2
00:29 53.6 °F 41 °F 29.8 in NNW 5 mph 5 mph 60% 0 in 0 W/m2
00:34 55.4 °F 41 °F 29.8 in N 6.8 mph 6.2 mph 59% 0 in 0 W/m2
00:39 53.6 °F 41 °F 29.8 in N 7.5 mph 6.8 mph 60% 0 in 0 W/m2
00:44 53.6 °F 42.8 °F 29.8 in N 7.5 mph 6.2 mph 63% 0 in 0 W/m2
00:49 53.6 °F 42.8 °F 29.8 in N 6.8 mph 6.2 mph 66% 0 in 0 W/m2
00:54 53.6 °F 42.8 °F 29.8 in N 7.5 mph 6.8 mph 64% 0 in 0 W/m2
00:59 53.6 °F 42.8 °F 29.8 in N 8.1 mph 6.8 mph 66% 0 in 0 W/m2
01:04 53.6 °F 42.8 °F 29.8 in N 8.7 mph 7.5 mph 66% 0 in 0 W/m2
01:09 53.6 °F 42.8 °F 29.8 in N 9.3 mph 8.1 mph 66% 0 in 0 W/m2
01:14 53.6 °F 42.8 °F 29.8 in N 9.3 mph 8.7 mph 65% 0 in 0 W/m2
01:19 53.6 °F 42.8 °F 29.8 in N 9.9 mph 8.7 mph 65% 0 in 0 W/m2
01:24 53.6 °F 42.8 °F 29.8 in N 8.7 mph 7.5 mph 66% 0 in 0 W/m2
01:29 53.6 °F 42.8 °F 29.8 in N 8.1 mph 6.8 mph 68% 0 in 0 W/m2
01:34 53.6 °F 44.6 °F 29.8 in N 6.2 mph 6.2 mph 70% 0 in 0 W/m2
01:39 53.6 °F 42.8 °F 29.8 in N 5 mph 4.3 mph 70% 0 in 0 W/m2
01:44 53.6 °F 44.6 °F 29.8 in NNW 5.6 mph 6.2 mph 71% 0 in 0 W/m2
01:49 51.8 °F 42.8 °F 29.8 in NNW 6.2 mph 5.6 mph 70% 0 in 0 W/m2
01:54 51.8 °F 42.8 °F 29.8 in NNW 5.6 mph 5.6 mph 69% 0 in 0 W/m2
01:59 51.8 °F 42.8 °F 29.8 in NNW 5 mph 4.3 mph 70% 0 in 0 W/m2
02:04 51.8 °F 42.8 °F 29.8 in NNW 5 mph 5 mph 68% 0 in 0 W/m2
02:09 51.8 °F 42.8 °F 29.8 in N 4.3 mph 4.3 mph 70% 0 in 0 W/m2
02:14 51.8 °F 42.8 °F 29.8 in N 5 mph 4.3 mph 68% 0 in 0 W/m2
02:19 51.8 °F 42.8 °F 29.8 in N 5 mph 3.7 mph 68% 0 in 0 W/m2
02:24 51.8 °F 42.8 °F 29.8 in N 5 mph 4.3 mph 67% 0 in 0 W/m2
02:29 51.8 °F 42.8 °F 29.8 in N 5 mph 3.7 mph 67% 0 in 0 W/m2
02:34 51.8 °F 41 °F 29.8 in N 6.2 mph 4.3 mph 67% 0 in 0 W/m2
02:39 51.8 °F 42.8 °F 29.8 in N 5.6 mph 5 mph 67% 0 in 0 W/m2
02:44 51.8 °F 42.8 °F 29.8 in N 6.2 mph 5.6 mph 67% 0 in 0 W/m2
02:49 51.8 °F 42.8 °F 29.8 in NNW 8.7 mph 8.7 mph 68% 0 in 0 W/m2
02:54 51.8 °F 41 °F 29.8 in NNW 10.6 mph 9.3 mph 65% 0 in 0 W/m2
02:59 51.8 °F 42.8 °F 29.8 in NNW 8.1 mph 7.5 mph 67% 0 in 0 W/m2
03:04 51.8 °F 41 °F 29.8 in NNW 9.3 mph 8.1 mph 67% 0 in 0 W/m2
03:09 51.8 °F 41 °F 29.8 in NNW 8.7 mph 7.5 mph 67% 0 in 0 W/m2
03:14 51.8 °F 41 °F 29.8 in N 9.3 mph 8.7 mph 66% 0 in 0 W/m2
03:19 51.8 °F 41 °F 29.8 in NNW 9.3 mph 8.7 mph 67% 0 in 0 W/m2
03:24 51.8 °F 41 °F 29.8 in N 9.3 mph 8.7 mph 66% 0 in 0 W/m2
03:29 51.8 °F 41 °F 29.8 in N 9.3 mph 8.1 mph 67% 0 in 0 W/m2
03:34 51.8 °F 41 °F 29.8 in N 8.7 mph 7.5 mph 67% 0 in 0 W/m2
03:39 51.8 °F 41 °F 29.8 in NNW 9.3 mph 8.7 mph 69% 0 in 0 W/m2
03:44 51.8 °F 41 °F 29.8 in NNW 9.3 mph 8.7 mph 68% 0 in 0 W/m2
03:49 51.8 °F 41 °F 29.8 in N 8.1 mph 8.7 mph 68% 0 in 0 W/m2
03:54 51.8 °F 41 °F 29.8 in N 10.6 mph 8.1 mph 69% 0 in 0 W/m2
03:59 51.8 °F 41 °F 29.8 in NNW 9.3 mph 7.5 mph 69% 0 in 0 W/m2
04:04 51.8 °F 41 °F 29.8 in NNW 11.2 mph 10.6 mph 68% 0 in 0 W/m2
04:09 51.8 °F 41 °F 29.8 in NNW 9.9 mph 8.7 mph 68% 0 in 0 W/m2
04:14 51.8 °F 41 °F 29.8 in NNW 10.6 mph 9.3 mph 68% 0 in 0 W/m2
04:19 51.8 °F 41 °F 29.8 in NNW 10.6 mph 8.7 mph 69% 0 in 0 W/m2
04:24 50 °F 41 °F 29.8 in NNW 10.6 mph 8.1 mph 69% 0 in 0 W/m2
04:29 50 °F 41 °F 29.8 in NNW 10.6 mph 8.7 mph 69% 0 in 0 W/m2
04:34 50 °F 41 °F 29.8 in NNW 9.9 mph 8.7 mph 69% 0 in 0 W/m2
04:39 50 °F 41 °F 29.8 in N 9.9 mph 9.3 mph 69% 0 in 5 W/m2
04:44 50 °F 41 °F 29.8 in NNW 11.2 mph 9.3 mph 69% 0 in 7 W/m2
04:49 50 °F 41 °F 29.8 in N 11.8 mph 9.9 mph 69% 0 in 12 W/m2
04:54 50 °F 41 °F 29.8 in NNW 11.8 mph 11.2 mph 69% 0 in 16 W/m2
04:59 50 °F 41 °F 29.8 in N 11.8 mph 11.2 mph 68% 0 in 21 W/m2
05:04 50 °F 41 °F 29.8 in NNW 11.8 mph 9.9 mph 69% 0 in 25 W/m2
05:09 50 °F 41 °F 29.8 in NNW 11.2 mph 10.6 mph 69% 0 in 30 W/m2
05:14 50 °F 41 °F 29.8 in N 11.8 mph 10.6 mph 69% 0 in 37 W/m2
05:19 50 °F 41 °F 29.8 in NNW 11.8 mph 9.9 mph 69% 0 in 42 W/m2
05:24 50 °F 41 °F 29.8 in NNW 11.8 mph 9.9 mph 70% 0 in 49 W/m2
05:29 50 °F 41 °F 29.8 in NNW 11.2 mph 10.6 mph 69% 0 in 58 W/m2
05:34 50 °F 41 °F 29.8 in N 12.4 mph 11.2 mph 70% 0 in 65 W/m2
05:39 50 °F 41 °F 29.8 in NNW 11.2 mph 9.9 mph 70% 0 in 72 W/m2
05:44 50 °F 41 °F 29.8 in NNW 11.2 mph 8.7 mph 71% 0 in 83 W/m2
05:49 50 °F 41 °F 29.8 in NNW 11.8 mph 11.2 mph 71% 0 in 90 W/m2
05:54 50 °F 41 °F 29.8 in NNW 9.9 mph 8.1 mph 71% 0 in 98 W/m2
05:59 50 °F 41 °F 29.8 in N 10.6 mph 8.1 mph 71% 0 in 107 W/m2
06:04 50 °F 41 °F 29.8 in N 10.6 mph 9.9 mph 71% 0 in 116 W/m2
06:09 50 °F 41 °F 29.8 in NNW 11.2 mph 8.7 mph 70% 0 in 125 W/m2
06:14 50 °F 41 °F 29.8 in NNW 10.6 mph 9.3 mph 70% 0 in 135 W/m2
06:19 50 °F 41 °F 29.8 in N 9.9 mph 9.3 mph 70% 0 in 144 W/m2
06:24 50 °F 41 °F 29.8 in NNW 11.2 mph 9.3 mph 70% 0 in 153 W/m2
06:29 51.8 °F 41 °F 29.8 in N 8.7 mph 8.7 mph 70% 0 in 163 W/m2
06:34 51.8 °F 41 °F 29.8 in NNW 9.3 mph 8.1 mph 69% 0 in 174 W/m2
06:39 51.8 °F 41 °F 29.8 in NNW 9.3 mph 8.1 mph 70% 0 in 183 W/m2
06:44 51.8 °F 41 °F 29.8 in NNW 10.6 mph 8.7 mph 69% 0 in 195 W/m2
06:49 51.8 °F 41 °F 29.8 in N 8.7 mph 7.5 mph 69% 0 in 206 W/m2
06:54 51.8 °F 42.8 °F 29.8 in N 6.8 mph 5.6 mph 70% 0 in 216 W/m2
06:59 51.8 °F 42.8 °F 29.8 in NNW 8.7 mph 7.5 mph 69% 0 in 227 W/m2
07:04 51.8 °F 42.8 °F 29.8 in N 8.1 mph 6.2 mph 69% 0 in 237 W/m2
07:09 53.6 °F 42.8 °F 29.8 in N 7.5 mph 6.2 mph 68% 0 in 248 W/m2
07:14 53.6 °F 42.8 °F 29.8 in N 7.5 mph 6.8 mph 67% 0 in 262 W/m2
07:19 53.6 °F 42.8 °F 29.8 in N 8.7 mph 6.8 mph 66% 0 in 271 W/m2
07:24 53.6 °F 42.8 °F 29.8 in N 10.6 mph 9.3 mph 65% 0 in 283 W/m2
07:29 53.6 °F 42.8 °F 29.8 in N 9.3 mph 8.1 mph 65% 0 in 295 W/m2
07:34 53.6 °F 42.8 °F 29.8 in N 9.9 mph 8.7 mph 65% 0 in 306 W/m2
07:39 53.6 °F 41 °F 29.8 in N 10.6 mph 8.7 mph 64% 0 in 316 W/m2
07:44 53.6 °F 42.8 °F 29.8 in N 9.3 mph 8.1 mph 65% 0 in 329 W/m2
07:49 53.6 °F 42.8 °F 29.8 in N 11.2 mph 9.9 mph 65% 0 in 339 W/m2
07:54 53.6 °F 41 °F 29.8 in N 11.8 mph 9.9 mph 64% 0 in 350 W/m2
07:59 53.6 °F 41 °F 29.8 in N 11.8 mph 9.9 mph 64% 0 in 362 W/m2
08:04 53.6 °F 41 °F 29.8 in N 11.2 mph 9.3 mph 63% 0 in 373 W/m2
08:09 53.6 °F 41 °F 29.8 in N 11.2 mph 9.3 mph 64% 0 in 383 W/m2
08:14 53.6 °F 42.8 °F 29.8 in N 9.9 mph 8.7 mph 64% 0 in 396 W/m2
08:19 53.6 °F 42.8 °F 29.8 in N 9.3 mph 6.8 mph 65% 0 in 406 W/m2
08:24 55.4 °F 42.8 °F 29.8 in N 8.1 mph 6.2 mph 65% 0 in 415 W/m2
08:29 55.4 °F 42.8 °F 29.8 in N 8.7 mph 6.2 mph 63% 0 in 429 W/m2
08:34 55.4 °F 42.8 °F 29.8 in N 7.5 mph 6.8 mph 64% 0 in 438 W/m2
08:39 55.4 °F 42.8 °F 29.8 in N 6.8 mph 5.6 mph 63% 0 in 450 W/m2
08:44 55.4 °F 42.8 °F 29.8 in N 6.8 mph 6.2 mph 63% 0 in 461 W/m2
08:49 55.4 °F 42.8 °F 29.8 in N 6.2 mph 5.6 mph 62% 0 in 471 W/m2
08:54 55.4 °F 42.8 °F 29.8 in N 5 mph 4.3 mph 61% 0 in 480 W/m2
08:59 57.2 °F 42.8 °F 29.8 in N 5 mph 4.3 mph 61% 0 in 492 W/m2
09:04 57.2 °F 42.8 °F 29.8 in N 6.2 mph 6.2 mph 60% 0 in 501 W/m2
09:09 57.2 °F 42.8 °F 29.8 in N 5.6 mph 5.6 mph 61% 0 in 510 W/m2
09:14 57.2 °F 42.8 °F 29.8 in N 4.3 mph 3.7 mph 60% 0 in 522 W/m2
09:19 57.2 °F 42.8 °F 29.8 in N 4.3 mph 4.3 mph 59% 0 in 531 W/m2
09:24 57.2 °F 42.8 °F 29.8 in N 3.7 mph 3.7 mph 59% 0 in 540 W/m2
09:29 57.2 °F 42.8 °F 29.8 in N 3.1 mph 2.5 mph 58% 0 in 552 W/m2
09:34 57.2 °F 44.6 °F 29.8 in NNE 3.1 mph 3.1 mph 59% 0 in 563 W/m2
09:39 59 °F 42.8 °F 29.8 in NE 1.9 mph 1.2 mph 54% 0 in 573 W/m2
09:44 59 °F 41 °F 29.8 in NE 3.7 mph 5 mph 53% 0 in 584 W/m2
09:49 57.2 °F 41 °F 29.8 in NE 8.7 mph 6.2 mph 55% 0 in 592 W/m2
09:54 57.2 °F 41 °F 29.8 in NE 8.7 mph 7.5 mph 55% 0 in 601 W/m2
09:59 57.2 °F 41 °F 29.8 in ENE 7.5 mph 6.8 mph 55% 0 in 610 W/m2
10:04 57.2 °F 41 °F 29.8 in ENE 7.5 mph 6.8 mph 56% 0 in 619 W/m2
10:09 57.2 °F 41 °F 29.8 in NE 8.7 mph 6.8 mph 55% 0 in 628 W/m2
10:14 57.2 °F 42.8 °F 29.8 in ENE 9.9 mph 7.5 mph 59% 0 in 636 W/m2
10:19 57.2 °F 41 °F 29.8 in NNE 9.9 mph 8.7 mph 57% 0 in 645 W/m2
10:24 57.2 °F 42.8 °F 29.8 in NNE 10.6 mph 8.7 mph 58% 0 in 652 W/m2
10:29 55.4 °F 42.8 °F 29.8 in NNE 10.6 mph 8.7 mph 60% 0 in 661 W/m2
10:34 55.4 °F 42.8 °F 29.8 in NNE 11.2 mph 8.7 mph 61% 0 in 668 W/m2
10:39 57.2 °F 42.8 °F 29.8 in NE 9.3 mph 7.5 mph 61% 0 in 677 W/m2
10:44 57.2 °F 42.8 °F 29.8 in NE 10.6 mph 8.1 mph 60% 0 in 686 W/m2
10:49 57.2 °F 42.8 °F 29.8 in NE 10.6 mph 9.9 mph 59% 0 in 693 W/m2
10:54 57.2 °F 42.8 °F 29.8 in NE 10.6 mph 8.7 mph 61% 0 in 700 W/m2
10:59 55.4 °F 42.8 °F 29.8 in NNE 10.6 mph 8.7 mph 60% 0 in 705 W/m2
11:04 55.4 °F 42.8 °F 29.8 in NE 11.2 mph 8.7 mph 62% 0 in 712 W/m2
11:09 55.4 °F 42.8 °F 29.8 in NNE 11.2 mph 10.6 mph 61% 0 in 717 W/m2
11:14 55.4 °F 42.8 °F 29.8 in NNE 9.9 mph 8.7 mph 62% 0 in 724 W/m2
11:19 55.4 °F 42.8 °F 29.8 in NE 10.6 mph 8.7 mph 62% 0 in 731 W/m2
11:24 55.4 °F 42.8 °F 29.8 in NE 9.9 mph 8.1 mph 62% 0 in 738 W/m2
11:29 55.4 °F 44.6 °F 29.8 in E 9.9 mph 8.7 mph 65% 0 in 744 W/m2
11:34 55.4 °F 42.8 °F 29.8 in NNE 9.9 mph 9.9 mph 62% 0 in 747 W/m2
11:39 55.4 °F 42.8 °F 29.8 in NE 9.3 mph 8.1 mph 63% 0 in 752 W/m2
11:44 55.4 °F 44.6 °F 29.8 in NE 9.9 mph 8.1 mph 65% 0 in 758 W/m2
11:49 55.4 °F 44.6 °F 29.8 in ENE 9.9 mph 8.1 mph 65% 0 in 763 W/m2
11:54 55.4 °F 44.6 °F 29.8 in NNE 9.9 mph 8.7 mph 65% 0 in 765 W/m2
11:59 55.4 °F 44.6 °F 29.8 in NE 8.7 mph 7.5 mph 66% 0 in 772 W/m2
12:04 55.4 °F 44.6 °F 29.8 in E 9.3 mph 7.5 mph 66% 0 in 777 W/m2
12:09 55.4 °F 44.6 °F 29.8 in NE 8.1 mph 7.5 mph 64% 0 in 780 W/m2
12:14 55.4 °F 44.6 °F 29.8 in NE 8.7 mph 7.5 mph 65% 0 in 784 W/m2
12:19 57.2 °F 44.6 °F 29.8 in NE 8.1 mph 6.8 mph 64% 0 in 789 W/m2
12:24 57.2 °F 44.6 °F 29.8 in E 8.7 mph 8.1 mph 64% 0 in 795 W/m2
12:29 55.4 °F 44.6 °F 29.8 in N 9.9 mph 8.1 mph 65% 0 in 800 W/m2
12:34 55.4 °F 44.6 °F 29.8 in N 9.9 mph 8.7 mph 65% 0 in 805 W/m2
12:39 55.4 °F 44.6 °F 29.8 in N 9.3 mph 7.5 mph 66% 0 in 814 W/m2
12:44 55.4 °F 44.6 °F 29.8 in ESE 9.3 mph 6.8 mph 66% 0 in 824 W/m2
12:49 57.2 °F 44.6 °F 29.8 in N 8.7 mph 6.8 mph 65% 0 in 830 W/m2
12:54 57.2 °F 44.6 °F 29.8 in N 9.9 mph 9.9 mph 65% 0 in 835 W/m2
12:59 55.4 °F 44.6 °F 29.8 in N 11.2 mph 8.7 mph 67% 0 in 854 W/m2
13:04 55.4 °F 44.6 °F 29.8 in N 11.2 mph 10.6 mph 66% 0 in 853 W/m2
13:09 55.4 °F 44.6 °F 29.7 in N 9.9 mph 9.3 mph 66% 0 in 817 W/m2
13:14 55.4 °F 44.6 °F 29.7 in N 8.7 mph 8.1 mph 64% 0 in 842 W/m2
13:19 55.4 °F 44.6 °F 29.7 in N 9.9 mph 8.1 mph 64% 0 in 860 W/m2
13:24 55.4 °F 44.6 °F 29.7 in N 9.3 mph 7.5 mph 64% 0 in 875 W/m2
13:29 57.2 °F 44.6 °F 29.7 in N 8.1 mph 6.8 mph 63% 0 in 877 W/m2
13:34 55.4 °F 44.6 °F 29.7 in NNE 11.2 mph 9.9 mph 64% 0 in 856 W/m2
13:39 55.4 °F 44.6 °F 29.7 in N 11.2 mph 9.9 mph 64% 0 in 761 W/m2
13:44 55.4 °F 42.8 °F 29.7 in N 10.6 mph 9.3 mph 63% 0 in 729 W/m2
13:49 55.4 °F 42.8 °F 29.7 in N 11.2 mph 9.9 mph 64% 0 in 719 W/m2
13:54 55.4 °F 44.6 °F 29.7 in N 11.8 mph 9.9 mph 65% 0 in 719 W/m2
13:59 55.4 °F 42.8 °F 29.7 in N 9.9 mph 8.7 mph 64% 0 in 731 W/m2
14:04 55.4 °F 42.8 °F 29.7 in N 9.3 mph 8.7 mph 63% 0 in 710 W/m2
14:09 55.4 °F 42.8 °F 29.7 in N 9.9 mph 10.6 mph 63% 0 in 759 W/m2
14:14 55.4 °F 44.6 °F 29.7 in N 9.9 mph 9.3 mph 63% 0 in 728 W/m2
14:19 55.4 °F 42.8 °F 29.7 in N 10.6 mph 9.3 mph 62% 0 in 708 W/m2
14:24 55.4 °F 42.8 °F 29.7 in N 11.2 mph 8.7 mph 63% 0 in 758 W/m2
14:29 55.4 °F 44.6 °F 29.7 in N 11.2 mph 9.3 mph 63% 0 in 738 W/m2
14:34 57.2 °F 44.6 °F 29.7 in N 10.6 mph 11.2 mph 63% 0 in 800 W/m2
14:39 55.4 °F 44.6 °F 29.7 in N 11.2 mph 9.3 mph 64% 0 in 800 W/m2
14:44 55.4 °F 44.6 °F 29.7 in N 11.2 mph 10.6 mph 64% 0 in 742 W/m2
14:49 57.2 °F 44.6 °F 29.7 in N 10.6 mph 8.7 mph 65% 0 in 645 W/m2
14:54 57.2 °F 44.6 °F 29.7 in N 10.6 mph 8.1 mph 65% 0 in 647 W/m2
14:59 57.2 °F 44.6 °F 29.7 in N 9.9 mph 7.5 mph 63% 0 in 673 W/m2
15:04 57.2 °F 44.6 °F 29.7 in N 9.3 mph 8.7 mph 61% 0 in 705 W/m2
15:09 57.2 °F 44.6 °F 29.7 in N 8.7 mph 6.8 mph 63% 0 in 663 W/m2
15:14 57.2 °F 44.6 °F 29.7 in N 10.6 mph 8.7 mph 61% 0 in 656 W/m2
15:19 57.2 °F 44.6 °F 29.7 in N 11.2 mph 8.7 mph 63% 0 in 615 W/m2
15:24 57.2 °F 44.6 °F 29.7 in N 11.2 mph 10.6 mph 63% 0 in 605 W/m2
15:29 57.2 °F 44.6 °F 29.7 in N 11.2 mph 10.6 mph 61% 0 in 657 W/m2
15:34 57.2 °F 44.6 °F 29.7 in N 11.2 mph 9.9 mph 62% 0 in 635 W/m2
15:39 57.2 °F 42.8 °F 29.7 in N 11.2 mph 9.9 mph 60% 0 in 587 W/m2
15:44 57.2 °F 42.8 °F 29.7 in N 11.2 mph 8.7 mph 60% 0 in 573 W/m2
15:49 57.2 °F 44.6 °F 29.7 in N 10.6 mph 8.7 mph 63% 0 in 584 W/m2
15:54 57.2 °F 44.6 °F 29.7 in N 10.6 mph 8.7 mph 63% 0 in 566 W/m2
15:59 57.2 °F 46.4 °F 29.7 in N 11.2 mph 10.6 mph 66% 0 in 571 W/m2
16:04 57.2 °F 44.6 °F 29.7 in N 8.1 mph 6.8 mph 62% 0 in 526 W/m2
16:09 57.2 °F 44.6 °F 29.7 in N 10.6 mph 8.1 mph 60% 0 in 529 W/m2
16:14 57.2 °F 42.8 °F 29.7 in N 11.8 mph 9.9 mph 58% 0 in 533 W/m2
16:19 57.2 °F 42.8 °F 29.7 in N 10.6 mph 8.1 mph 58% 0 in 519 W/m2
16:24 57.2 °F 42.8 °F 29.7 in N 10.6 mph 9.3 mph 57% 0 in 582 W/m2
16:29 57.2 °F 42.8 °F 29.7 in N 12.4 mph 12.4 mph 55% 0 in 582 W/m2
16:34 57.2 °F 44.6 °F 29.7 in N 11.2 mph 11.8 mph 59% 0 in 559 W/m2
16:39 59 °F 42.8 °F 29.7 in N 11.8 mph 11.8 mph 57% 0 in 610 W/m2
16:44 59 °F 44.6 °F 29.7 in N 9.9 mph 8.1 mph 58% 0 in 559 W/m2
16:49 59 °F 44.6 °F 29.7 in N 12.4 mph 10.6 mph 60% 0 in 554 W/m2
16:54 59 °F 44.6 °F 29.7 in N 12.4 mph 9.9 mph 60% 0 in 487 W/m2
16:59 57.2 °F 44.6 °F 29.7 in N 11.8 mph 9.3 mph 61% 0 in 431 W/m2
17:04 57.2 °F 44.6 °F 29.7 in N 10.6 mph 8.7 mph 61% 0 in 387 W/m2
17:09 57.2 °F 44.6 °F 29.7 in N 10.6 mph 8.7 mph 63% 0 in 378 W/m2
17:14 57.2 °F 48.2 °F 29.7 in N 11.2 mph 9.3 mph 69% 0 in 410 W/m2
17:19 57.2 °F 48.2 °F 29.7 in N 13 mph 11.8 mph 72% 0 in 445 W/m2
17:24 57.2 °F 48.2 °F 29.7 in N 12.4 mph 10.6 mph 73% 0 in 462 W/m2
17:29 57.2 °F 48.2 °F 29.7 in N 9.3 mph 8.7 mph 74% 0 in 443 W/m2
17:34 57.2 °F 50 °F 29.7 in N 11.2 mph 11.2 mph 74% 0 in 413 W/m2
17:39 57.2 °F 48.2 °F 29.7 in N 11.2 mph 11.8 mph 74% 0 in 387 W/m2
17:44 57.2 °F 48.2 °F 29.7 in N 11.8 mph 10.6 mph 75% 0 in 360 W/m2
17:49 57.2 °F 48.2 °F 29.7 in N 11.8 mph 10.6 mph 75% 0 in 318 W/m2
17:54 57.2 °F 50 °F 29.7 in N 10.6 mph 9.9 mph 75% 0 in 322 W/m2
17:59 57.2 °F 50 °F 29.7 in N 12.4 mph 9.9 mph 75% 0 in 309 W/m2
18:04 57.2 °F 50 °F 29.7 in N 11.2 mph 9.9 mph 75% 0 in 306 W/m2
18:09 57.2 °F 50 °F 29.7 in N 10.6 mph 10.6 mph 76% 0 in 290 W/m2
18:14 57.2 °F 50 °F 29.7 in N 10.6 mph 9.3 mph 76% 0 in 267 W/m2
Compliments of Weather Underground - 2 mb